createdAt,value
2018-11-29T00:00:25.788Z,0.81
2018-11-29T00:03:00.691Z,0.81
2018-11-29T00:05:35.382Z,0.82
2018-11-29T00:08:10.300Z,0.86
2018-11-29T00:10:47.308Z,0.84
2018-11-29T00:13:20.290Z,0.95
2018-11-29T00:15:54.949Z,0.95
2018-11-29T00:18:29.731Z,0.93
2018-11-29T00:21:04.509Z,0.91
2018-11-29T00:23:39.289Z,0.91
2018-11-29T00:26:13.984Z,0.91
2018-11-29T00:28:48.953Z,1.02
2018-11-29T00:31:23.840Z,1.05
2018-11-29T00:33:58.819Z,1.01
2018-11-29T00:36:33.588Z,1.02
2018-11-29T00:39:09.377Z,1.06
2018-11-29T00:41:44.274Z,1.02
2018-11-29T00:44:17.702Z,1.02
2018-11-29T00:46:52.291Z,0.94
2018-11-29T00:49:25.351Z,0.94
2018-11-29T00:52:00.290Z,0.98
2018-11-29T00:54:33.765Z,0.98
2018-11-29T00:57:08.712Z,1.13
2018-11-29T00:59:43.941Z,1.05
2018-11-29T01:02:18.899Z,1.05
2018-11-29T01:04:54.017Z,1.09
2018-11-29T01:07:28.955Z,1.07
2018-11-29T01:10:04.440Z,1.10
2018-11-29T01:12:39.275Z,1.02
2018-11-29T01:15:19.497Z,1.02
2018-11-29T01:17:53.012Z,1.05
2018-11-29T01:20:28.957Z,1.11
2018-11-29T01:23:03.743Z,1.06
2018-11-29T01:25:44.074Z,1.05
2018-11-29T01:28:18.960Z,1.06
2018-11-29T01:30:55.394Z,1.13
2018-11-29T01:33:30.285Z,1.08
2018-11-29T01:36:04.805Z,1.03
2018-11-29T01:38:39.640Z,1.00
2018-11-29T01:41:14.383Z,1.02
2018-11-29T01:43:49.082Z,1.01
2018-11-29T01:46:23.953Z,0.98
2018-11-29T01:48:58.724Z,0.96
2018-11-29T01:51:33.433Z,0.96
2018-11-29T01:54:08.285Z,0.94
2018-11-29T01:56:40.994Z,0.94
2018-11-29T01:59:16.303Z,0.97
2018-11-29T02:01:51.287Z,0.96
2018-11-29T02:04:26.911Z,0.92
2018-11-29T02:07:01.766Z,0.99
2018-11-29T02:09:37.284Z,0.94
2018-11-29T02:12:12.289Z,0.94
2018-11-29T02:14:47.489Z,0.93
2018-11-29T02:17:21.942Z,1.04
2018-11-29T02:19:57.343Z,1.09
2018-11-29T02:22:31.940Z,1.13
2018-11-29T02:25:06.988Z,1.05
2018-11-29T02:27:41.893Z,1.09
2018-11-29T02:30:25.294Z,1.03
2018-11-29T02:32:59.901Z,1.05
2018-11-29T02:35:33.897Z,1.03
2018-11-29T02:38:08.505Z,0.99
2018-11-29T02:40:47.645Z,1.04
2018-11-29T02:43:22.625Z,1.04
2018-11-29T02:45:57.302Z,1.07
2018-11-29T02:48:30.050Z,1.06
2018-11-29T02:51:02.713Z,1.11
2018-11-29T02:53:37.417Z,1.04
2018-11-29T02:56:12.298Z,0.99
2018-11-29T02:58:44.698Z,0.99
2018-11-29T03:01:19.391Z,1.05
2018-11-29T03:03:53.920Z,1.12
2018-11-29T03:06:28.786Z,1.09
2018-11-29T03:09:04.120Z,1.10
2018-11-29T03:11:38.895Z,1.10
2018-11-29T03:14:13.953Z,1.08
2018-11-29T03:16:48.761Z,1.10
2018-11-29T03:20:55.784Z,1.14
2018-11-29T03:23:30.959Z,1.14
2018-11-29T03:26:05.320Z,1.12
2018-11-29T03:28:39.952Z,1.12
2018-11-29T03:31:14.324Z,1.15
2018-11-29T03:33:48.953Z,1.12
2018-11-29T03:36:23.323Z,1.09
2018-11-29T03:38:55.826Z,1.12
2018-11-29T03:41:30.295Z,1.14
2018-11-29T03:44:02.719Z,1.11
2018-11-29T03:46:37.435Z,1.10
2018-11-29T03:49:12.298Z,1.06
2018-11-29T03:51:46.949Z,0.98
2018-11-29T03:54:22.978Z,1.02
2018-11-29T03:56:57.431Z,1.01
2018-11-29T03:59:32.328Z,0.96
2018-11-29T04:02:06.916Z,0.94
2018-11-29T04:04:41.958Z,0.94
2018-11-29T04:07:16.413Z,1.06
2018-11-29T04:09:51.315Z,1.08
2018-11-29T04:12:25.750Z,1.03
2018-11-29T04:15:00.335Z,1.14
2018-11-29T04:17:33.057Z,1.14
2018-11-29T04:20:08.992Z,1.02
2018-11-29T04:22:43.762Z,1.03
2018-11-29T04:25:19.364Z,1.10
2018-11-29T04:27:52.044Z,1.07
2018-11-29T04:30:27.340Z,1.07
2018-11-29T04:33:01.793Z,1.15
2018-11-29T04:35:36.373Z,1.02
2018-11-29T04:38:11.290Z,1.06
2018-11-29T04:40:49.930Z,1.06
2018-11-29T04:43:24.749Z,1.05
2018-11-29T04:46:54.383Z,1.01
2018-11-29T04:49:29.332Z,1.01
2018-11-29T04:52:03.789Z,1.00
2018-11-29T04:54:39.130Z,1.05
2018-11-29T04:57:13.422Z,0.97
2018-11-29T04:59:46.295Z,0.97
2018-11-29T05:02:19.293Z,0.96
2018-11-29T05:04:52.369Z,0.95
2018-11-29T05:07:26.679Z,0.91
2018-11-29T05:10:01.366Z,0.83
2018-11-29T05:12:36.120Z,0.83
2018-11-29T05:15:13.433Z,0.91
2018-11-29T05:17:47.903Z,1.00
2018-11-29T05:20:22.755Z,1.02
2018-11-29T05:22:57.303Z,1.01
2018-11-29T05:25:32.374Z,1.01
2018-11-29T05:28:07.311Z,0.95
2018-11-29T05:30:45.496Z,0.95
2018-11-29T05:33:20.315Z,0.92
2018-11-29T05:35:54.927Z,0.92
2018-11-29T05:38:29.421Z,0.95
2018-11-29T05:41:03.910Z,1.01
2018-11-29T05:43:38.545Z,0.95
2018-11-29T05:46:12.928Z,0.91
2018-11-29T05:48:47.789Z,0.90
2018-11-29T05:51:22.420Z,1.00
2018-11-29T05:53:57.381Z,1.01
2018-11-29T05:56:32.292Z,1.01
2018-11-29T05:59:05.141Z,1.06
2018-11-29T06:01:42.376Z,1.09
2018-11-29T06:04:17.407Z,1.11
2018-11-29T06:06:52.379Z,1.04
2018-11-29T06:09:27.331Z,1.04
2018-11-29T06:12:02.293Z,1.04
2018-11-29T06:14:38.301Z,0.98
2018-11-29T06:17:13.294Z,1.06
2018-11-29T06:22:13.333Z,1.07
2018-11-29T06:24:46.536Z,0.99
2018-11-29T06:27:21.295Z,1.02
2018-11-29T06:30:10.500Z,1.02
2018-11-29T06:32:45.294Z,1.10
2018-11-29T06:35:20.311Z,1.10
2018-11-29T06:37:53.128Z,1.06
2018-11-29T06:40:28.333Z,1.06
2018-11-29T06:43:03.296Z,1.13
2018-11-29T06:45:38.346Z,1.18
2018-11-29T06:48:13.303Z,1.25
2018-11-29T06:50:49.290Z,1.27
2018-11-29T06:53:40.440Z,1.32
2018-11-29T06:56:14.965Z,1.36
2018-11-29T06:58:51.718Z,1.35
2018-11-29T07:01:25.086Z,1.30
2018-11-29T07:04:00.301Z,1.30
2018-11-29T07:06:34.806Z,1.35
2018-11-29T07:09:11.968Z,1.31
2018-11-29T07:11:45.076Z,1.33
2018-11-29T07:14:20.341Z,1.32
2018-11-29T07:16:55.476Z,1.38
2018-11-29T07:19:30.302Z,1.37
2018-11-29T07:22:06.287Z,1.37
2018-11-29T07:24:41.304Z,1.49
2018-11-29T07:27:16.304Z,1.59
2018-11-29T07:29:49.281Z,1.60
2018-11-29T07:35:09.718Z,1.76
2018-11-29T07:37:44.460Z,1.75
2018-11-29T07:43:20.416Z,1.83
2018-11-29T07:45:55.300Z,1.85
2018-11-29T07:48:28.377Z,1.85
2018-11-29T07:51:03.293Z,1.91
2018-11-29T07:53:37.289Z,1.95
2018-11-29T07:56:11.931Z,1.98
2018-11-29T07:58:51.595Z,2.04
2018-11-29T08:01:22.427Z,2.16
2018-11-29T08:03:57.326Z,2.24
2018-11-29T08:06:32.292Z,2.47
2018-11-29T08:09:05.665Z,2.56
2018-11-29T08:11:38.680Z,2.46
2018-11-29T08:14:13.780Z,2.52
2018-11-29T08:16:48.356Z,2.65
2018-11-29T08:19:21.290Z,2.65
2018-11-29T08:21:56.288Z,2.74
2018-11-29T08:24:29.329Z,2.84
2018-11-29T08:27:04.295Z,2.86
2018-11-29T08:29:37.293Z,2.89
2018-11-29T08:32:12.341Z,3.05
2018-11-29T08:34:47.338Z,3.10
2018-11-29T08:37:20.298Z,3.13
2018-11-29T08:39:53.125Z,3.29
2018-11-29T08:42:28.304Z,3.49
2018-11-29T08:45:03.302Z,3.78
2018-11-29T08:47:38.297Z,3.88
2018-11-29T08:50:17.467Z,4.06
2018-11-29T08:52:50.603Z,4.68
2018-11-29T08:55:25.397Z,5.51
2018-11-29T08:58:00.299Z,6.16
2018-11-29T09:00:36.303Z,5.95
2018-11-29T09:03:36.288Z,5.96
2018-11-29T09:06:11.282Z,5.84
2018-11-29T09:08:44.114Z,5.84
2018-11-29T09:11:19.290Z,5.95
2018-11-29T09:13:52.297Z,6.43
2018-11-29T09:16:27.296Z,6.93
2018-11-29T09:19:00.294Z,7.05
2018-11-29T09:21:35.296Z,7.11
2018-11-29T09:24:08.286Z,7.19
2018-11-29T09:26:43.301Z,7.07
2018-11-29T09:29:16.287Z,7.05
2018-11-29T09:31:51.286Z,7.36
2018-11-29T09:34:24.305Z,7.61
2018-11-29T09:36:59.302Z,7.80
2018-11-29T09:39:32.340Z,8.04
2018-11-29T09:42:07.695Z,8.23
2018-11-29T09:44:42.783Z,8.09
2018-11-29T09:47:15.912Z,7.75
2018-11-29T09:49:50.922Z,7.51
2018-11-29T09:52:25.409Z,7.44
2018-11-29T09:55:00.333Z,7.50
2018-11-29T09:57:35.302Z,7.76
2018-11-29T10:00:11.610Z,7.52
2018-11-29T10:03:05.301Z,7.71
2018-11-29T10:05:40.406Z,7.71
2018-11-29T10:08:17.297Z,8.29
2018-11-29T10:10:54.285Z,8.28
2018-11-29T10:13:27.105Z,8.47
2018-11-29T10:16:01.793Z,8.50
2018-11-29T10:18:37.051Z,8.56
2018-11-29T10:21:12.341Z,8.65
2018-11-29T10:23:47.299Z,8.51
2018-11-29T10:26:22.299Z,8.49
2018-11-29T10:28:55.280Z,8.71
2018-11-29T10:31:30.327Z,9.18
2018-11-29T10:34:03.343Z,9.18
2018-11-29T10:36:37.936Z,9.09
2018-11-29T10:39:13.749Z,9.29
2018-11-29T10:41:46.418Z,9.37
2018-11-29T10:44:22.314Z,9.11
2018-11-29T10:46:57.293Z,9.11
2018-11-29T10:49:32.312Z,9.12
2018-11-29T10:52:07.290Z,9.09
2018-11-29T10:54:41.980Z,9.31
2018-11-29T10:57:19.291Z,9.86
2018-11-29T10:59:52.079Z,9.98
2018-11-29T11:02:30.484Z,10.00
2018-11-29T11:05:05.328Z,10.35
2018-11-29T11:07:38.859Z,10.96
2018-11-29T11:10:13.746Z,11.46
2018-11-29T11:12:48.439Z,12.77
2018-11-29T11:15:23.317Z,12.77
2018-11-29T11:20:45.379Z,13.28
2018-11-29T11:23:18.295Z,13.28
2018-11-29T11:25:53.650Z,13.35
2018-11-29T11:28:28.714Z,13.24
2018-11-29T11:31:03.782Z,13.24
2018-11-29T11:33:38.961Z,13.65
2018-11-29T11:36:14.290Z,14.12
2018-11-29T11:38:48.125Z,14.48
2018-11-29T11:41:22.893Z,14.25
2018-11-29T11:43:57.957Z,13.75
2018-11-29T11:46:32.373Z,12.99
2018-11-29T11:49:05.282Z,12.69
2018-11-29T11:51:40.280Z,12.55
2018-11-29T11:54:15.288Z,11.32
2018-11-29T11:56:50.283Z,11.32
2018-11-29T11:59:23.470Z,10.69
2018-11-29T12:01:58.315Z,9.89
2018-11-29T12:04:31.291Z,9.89
2018-11-29T12:08:17.656Z,9.31
2018-11-29T12:10:54.322Z,9.31
2018-11-29T12:13:32.954Z,10.24
2018-11-29T12:16:08.279Z,10.24
2018-11-29T12:18:43.343Z,11.02
2018-11-29T12:21:18.280Z,11.53
2018-11-29T12:23:56.710Z,12.32
2018-11-29T12:26:31.588Z,13.59
2018-11-29T12:29:06.775Z,13.59
2018-11-29T12:32:03.273Z,14.06
2018-11-29T12:34:38.308Z,14.52
2018-11-29T12:37:13.293Z,14.83
2018-11-29T12:39:48.297Z,14.44
2018-11-29T12:42:23.283Z,15.34
2018-11-29T12:44:57.346Z,15.42
2018-11-29T12:47:30.346Z,15.72
2018-11-29T12:50:05.302Z,16.06
2018-11-29T12:52:39.956Z,15.78
2018-11-29T12:55:16.385Z,15.51
2018-11-29T12:58:04.447Z,15.30
2018-11-29T13:00:26.714Z,14.88
2018-11-29T13:03:02.285Z,14.49
2018-11-29T13:05:40.305Z,13.74
2018-11-29T13:08:15.295Z,12.61
2018-11-29T13:10:56.288Z,12.11
2018-11-29T13:13:31.287Z,11.43
2018-11-29T13:16:05.813Z,10.53
2018-11-29T13:18:41.295Z,10.08
2018-11-29T13:21:16.281Z,9.61
2018-11-29T13:23:49.311Z,9.12
2018-11-29T13:26:24.282Z,8.66
2018-11-29T13:28:59.287Z,8.53
2018-11-29T13:31:34.499Z,8.26
2018-11-29T13:34:09.369Z,7.86
2018-11-29T13:36:44.368Z,7.69
2018-11-29T13:39:17.369Z,7.69
2018-11-29T13:41:52.482Z,7.35
2018-11-29T13:44:27.388Z,7.35
2018-11-29T13:47:02.370Z,7.35
2018-11-29T13:49:37.297Z,7.10
2018-11-29T13:52:12.281Z,7.10
2018-11-29T13:54:45.152Z,6.93
2018-11-29T13:57:20.285Z,6.90
2018-11-29T13:59:53.226Z,6.74
2018-11-29T14:02:27.955Z,6.56
2018-11-29T14:05:02.747Z,6.35
2018-11-29T14:07:37.615Z,6.15
2018-11-29T14:10:19.141Z,5.87
2018-11-29T14:12:53.032Z,5.70
2018-11-29T14:15:29.747Z,5.43
2018-11-29T14:18:04.696Z,5.35
2018-11-29T14:20:39.353Z,4.89
2018-11-29T14:23:14.271Z,4.89
2018-11-29T14:25:51.394Z,4.78
2018-11-29T14:28:26.279Z,4.80
2018-11-29T14:31:02.958Z,4.76
2018-11-29T14:33:39.945Z,4.71
2018-11-29T14:36:14.451Z,4.67
2018-11-29T14:38:49.284Z,4.41
2018-11-29T14:41:24.288Z,4.41
2018-11-29T14:43:57.342Z,4.36
2018-11-29T14:46:32.277Z,4.21
2018-11-29T14:49:05.372Z,4.11
2018-11-29T14:51:48.029Z,3.88
2018-11-29T14:54:15.338Z,3.88
2018-11-29T14:56:50.369Z,3.87
2018-11-29T14:59:25.321Z,3.79
2018-11-29T15:01:59.910Z,3.66
2018-11-29T15:04:34.689Z,3.36
2018-11-29T15:07:09.511Z,3.27
2018-11-29T15:09:44.289Z,3.27
2018-11-29T15:12:18.757Z,3.30
2018-11-29T15:14:53.388Z,3.09
2018-11-29T15:17:28.271Z,3.09
2018-11-29T15:20:01.311Z,3.03
2018-11-29T15:22:36.284Z,2.86
2018-11-29T15:25:11.998Z,2.75
2018-11-29T15:27:46.907Z,2.63
2018-11-29T15:30:23.722Z,2.57
2018-11-29T15:32:58.423Z,2.60
2018-11-29T15:35:31.287Z,2.67
2018-11-29T15:38:06.449Z,2.56
2018-11-29T15:40:41.549Z,2.52
2018-11-29T15:43:16.906Z,2.57
2018-11-29T15:45:53.519Z,2.48
2018-11-29T15:48:28.277Z,2.33
2018-11-29T15:51:03.269Z,2.38
2018-11-29T15:53:36.284Z,2.38
2018-11-29T15:56:12.276Z,2.39
2018-11-29T15:58:45.311Z,2.41
2018-11-29T16:01:20.281Z,2.38
2018-11-29T16:03:53.299Z,2.47
2018-11-29T16:06:28.357Z,2.40
2018-11-29T16:09:01.061Z,2.45
2018-11-29T16:11:36.287Z,2.37
2018-11-29T16:14:09.280Z,2.37
2018-11-29T16:16:44.282Z,2.37
2018-11-29T16:19:19.292Z,2.41
2018-11-29T16:21:54.287Z,2.44
2018-11-29T16:24:29.304Z,2.43
2018-11-29T16:27:03.905Z,2.37
2018-11-29T16:29:39.292Z,2.39
2018-11-29T16:32:19.932Z,2.42
2018-11-29T16:34:54.957Z,2.42
2018-11-29T16:37:29.966Z,2.42
2018-11-29T16:40:04.687Z,2.30
2018-11-29T16:42:39.370Z,2.30
2018-11-29T16:45:14.338Z,2.35
2018-11-29T16:47:51.427Z,2.48
2018-11-29T16:50:26.738Z,2.59
2018-11-29T16:53:01.430Z,2.51
2018-11-29T16:55:34.285Z,2.44
2018-11-29T16:58:18.119Z,2.61
2018-11-29T17:03:38.950Z,2.50
2018-11-29T17:06:13.643Z,2.46
2018-11-29T17:08:48.290Z,2.46
2018-11-29T17:11:23.282Z,2.48
2018-11-29T17:13:56.075Z,2.50
2018-11-29T17:16:30.737Z,2.53
2018-11-29T17:19:05.416Z,2.60
2018-11-29T17:21:40.341Z,2.61
2018-11-29T17:24:14.933Z,2.61
2018-11-29T17:26:47.825Z,2.72
2018-11-29T17:29:22.892Z,2.70
2018-11-29T17:31:57.460Z,2.58
2018-11-29T17:34:32.304Z,2.44
2018-11-29T17:37:06.775Z,2.44
2018-11-29T17:39:41.669Z,2.39
2018-11-29T17:42:14.303Z,2.41
2018-11-29T17:44:47.099Z,2.54
2018-11-29T17:47:21.942Z,2.61
2018-11-29T17:49:57.119Z,2.61
2018-11-29T17:52:31.714Z,2.60
2018-11-29T17:55:06.337Z,2.76
2018-11-29T17:57:39.051Z,2.76
2018-11-29T18:00:36.323Z,2.69
2018-11-29T18:03:10.347Z,2.66
2018-11-29T18:05:47.198Z,2.61
2018-11-29T18:08:22.159Z,2.61
2018-11-29T18:11:03.505Z,2.68
2018-11-29T18:14:21.631Z,2.70
2018-11-29T18:16:56.953Z,2.65
2018-11-29T18:19:31.973Z,2.56
2018-11-29T18:22:08.384Z,2.57
2018-11-29T18:24:43.316Z,2.55
2018-11-29T18:30:00.402Z,2.63
2018-11-29T18:32:35.674Z,2.47
2018-11-29T18:35:11.965Z,2.54
2018-11-29T18:37:46.760Z,2.54
2018-11-29T18:40:24.320Z,2.58
2018-11-29T18:43:03.792Z,2.58
2018-11-29T18:45:38.739Z,2.70
2018-11-29T18:48:15.291Z,2.70
2018-11-29T18:50:52.698Z,2.68
2018-11-29T18:53:27.277Z,2.66
2018-11-29T18:56:02.106Z,2.67
2018-11-29T18:58:36.788Z,2.54
2018-11-29T19:01:11.957Z,2.52
2018-11-29T19:03:46.754Z,2.56
2018-11-29T19:06:21.482Z,2.46
2018-11-29T19:08:56.294Z,2.41
2018-11-29T19:11:30.952Z,2.41
2018-11-29T19:14:05.499Z,2.33
2018-11-29T19:17:38.280Z,2.35
2018-11-29T19:20:15.753Z,2.26
2018-11-29T19:22:50.683Z,2.28
2018-11-29T19:25:26.075Z,2.28
2018-11-29T19:28:00.964Z,2.26
2018-11-29T19:32:17.296Z,2.33
2018-11-29T19:34:50.404Z,2.24
2018-11-29T19:37:25.126Z,2.18
2018-11-29T19:40:01.296Z,2.17
2018-11-29T19:42:36.288Z,2.11
2018-11-29T19:45:10.345Z,2.18
2018-11-29T19:47:43.286Z,2.03
2018-11-29T19:50:27.317Z,1.93
2018-11-29T19:53:03.606Z,1.91
2018-11-29T19:55:37.303Z,1.95
2018-11-29T19:58:10.319Z,1.98
2018-11-29T20:00:49.033Z,1.88
2018-11-29T20:03:23.932Z,2.03
2018-11-29T20:05:58.413Z,1.89
2018-11-29T20:08:33.291Z,1.93
2018-11-29T20:11:08.514Z,1.93
2018-11-29T20:13:43.298Z,1.89
2018-11-29T20:16:18.276Z,1.85
2018-11-29T20:18:51.162Z,1.84
2018-11-29T20:21:25.950Z,1.95
2018-11-29T20:24:00.405Z,1.89
2018-11-29T20:26:35.289Z,1.89
2018-11-29T20:29:08.009Z,1.89
2018-11-29T20:31:42.800Z,1.87
2018-11-29T20:34:18.621Z,1.94
2018-11-29T20:36:53.287Z,1.86
2018-11-29T20:39:26.405Z,1.86
2018-11-29T20:42:01.294Z,1.97
2018-11-29T20:44:34.302Z,1.97
2018-11-29T20:47:09.285Z,1.93
2018-11-29T20:49:42.287Z,1.91
2018-11-29T20:52:16.964Z,1.87
2018-11-29T20:57:49.865Z,1.81
2018-11-29T21:00:24.747Z,1.90
2018-11-29T21:02:59.290Z,1.84
2018-11-29T21:05:34.596Z,1.84
2018-11-29T21:08:10.301Z,1.71
2018-11-29T21:10:45.299Z,1.69
2018-11-29T21:13:18.282Z,1.73
2018-11-29T21:17:21.333Z,1.83
2018-11-29T21:19:54.307Z,1.77
2018-11-29T21:22:27.077Z,1.75
2018-11-29T21:25:02.299Z,1.78
2018-11-29T21:27:36.956Z,1.81
2018-11-29T21:30:20.300Z,1.81
2018-11-29T21:32:53.382Z,1.74
2018-11-29T21:35:26.720Z,1.74
2018-11-29T21:38:01.528Z,1.76
2018-11-29T21:40:35.839Z,1.76
2018-11-29T21:43:10.411Z,1.78
2018-11-29T21:45:47.536Z,1.74
2018-11-29T21:48:22.297Z,1.52
2018-11-29T21:50:59.292Z,1.52
2018-11-29T21:53:32.061Z,1.60
2018-11-29T21:56:06.953Z,1.49
2018-11-29T21:58:41.913Z,1.48
2018-11-29T22:01:16.747Z,1.43
2018-11-29T22:03:51.536Z,1.43
2018-11-29T22:06:24.285Z,1.47
2018-11-29T22:08:56.685Z,1.52
2018-11-29T22:11:31.686Z,1.45
2018-11-29T22:14:06.442Z,1.40
2018-11-29T22:16:43.347Z,1.35
2018-11-29T22:19:18.344Z,1.37
2018-11-29T22:21:53.282Z,1.37
2018-11-29T22:24:26.325Z,1.35
2018-11-29T22:27:01.294Z,1.24
2018-11-29T22:29:35.438Z,1.21
2018-11-29T22:32:10.281Z,1.18
2018-11-29T22:34:43.283Z,1.06
2018-11-29T22:37:17.739Z,1.06
2018-11-29T22:39:52.743Z,1.09
2018-11-29T22:42:25.330Z,1.03
2018-11-29T22:44:58.295Z,0.97
2018-11-29T22:47:31.272Z,0.97
2018-11-29T22:50:06.305Z,1.08
2018-11-29T22:52:41.121Z,1.12
2018-11-29T22:55:16.344Z,1.12
2018-11-29T22:57:48.993Z,1.17
2018-11-29T23:00:24.327Z,1.16
2018-11-29T23:02:57.290Z,1.20
2018-11-29T23:05:32.324Z,1.32
2018-11-29T23:08:07.283Z,1.14
2018-11-29T23:10:45.035Z,1.14
2018-11-29T23:13:19.956Z,1.22
2018-11-29T23:15:54.790Z,0.96
2018-11-29T23:18:29.391Z,1.09
2018-11-29T23:21:04.292Z,1.03
2018-11-29T23:23:37.131Z,1.03
2018-11-29T23:26:12.295Z,0.93
2018-11-29T23:28:45.085Z,0.89
2018-11-29T23:31:19.791Z,0.91
2018-11-29T23:33:54.709Z,0.93
2018-11-29T23:36:29.285Z,0.91
2018-11-29T23:39:02.301Z,0.96
2018-11-29T23:41:37.277Z,0.99
2018-11-29T23:44:10.117Z,0.98
2018-11-29T23:46:45.107Z,0.93
2018-11-29T23:49:20.346Z,0.82
2018-11-29T23:51:55.314Z,1.04
2018-11-29T23:54:28.337Z,1.04
2018-11-29T23:57:02.955Z,1.05
2018-11-29T23:59:39.326Z,1.07
